Login

Luka3x
1 activity; - Last training unit 27/11/2016
27/11/2016 Show to everybody Giro Ventolone + volo sul sentiero da Oci 17.8 487 01:49:04 9.79 Km\h
22/10/2016 Show to everybody Salita dei Mussi Eremo Venda Chiesetta Mola 22.65 672 02:26:15 9.29 Km\h
17/10/2016 Show to everybody Andata ufficio 25.47 45 01:10:07 21.8 Km\h
17/10/2016 Show to everybody Ritorno ufficio 25.69 45 01:10:01 22.01 Km\h
12/10/2016 Show to everybody Cervarese Tecla Lago di Fimon salita Sartoratti Lapio val dei Molini Tormeno Longara 74.39 759 04:44:04 15.71 Km\h
08/10/2016 Show to everybody M.te Grande M.te Venda classico 30.08 791 02:32:57 11.8 Km\h
01/10/2016 Show to everybody Groppetto M.Grande Vietnam M.Venda Chesetta 25% Musara Eremo M.Rua Carabiniera 36.92 1088 03:19:27 11.11 Km\h
28/09/2016 Show to everybody M.te Erio - M.te Verena 41.92 1160 04:06:22 10.21 Km\h
25/09/2016 Show to everybody Tutto afalto con Bruno 34.35 659 02:07:53 16.12 Km\h
22/09/2016 Show to everybody andata ufficio 25.41 57 01:11:19 21.38 Km\h
22/09/2016 Show to everybody ritorno ufficio 25.54 33 01:09:16 22.12 Km\h
18/09/2016 Show to everybody Turri x 4, Galzignano Battaglia x l\'argine 41.26 379 02:20:16 17.65 Km\h
14/09/2016 Show to everybody Andata ufficio 24.73 108 01:05:34 22.63 Km\h
14/09/2016 Show to everybody Ritorno ufficio 25.54 79 01:09:17 22.11 Km\h
11/09/2016 Show to everybody Ricomincio da qua 25.28 1320 02:01:46 12.46 Km\h
07/09/2016 Show to everybody Andata ufficio 25.32 91 01:16:43 19.8 Km\h
07/09/2016 Show to everybody Ritorno ufficio 25.56 113 01:17:02 19.91 Km\h
02/09/2016 Show to everybody Andata ufficio 25.63 102 01:12:18 21.27 Km\h
02/09/2016 Show to everybody Ritorno ufficio 25.67 69 01:14:01 20.81 Km\h
27/07/2016 Show to everybody Andata ufficio 25.57 107 01:09:53 21.95 Km\h
27/07/2016 Show to everybody Ritorno ufficio 25.54 110 01:04:43 23.68 Km\h
22/07/2016 Show to everybody Andata ufficio 25.54 59 01:10:04 21.87 Km\h
22/07/2016 Show to everybody Ritorno ufficio 25.84 81 01:09:27 22.32 Km\h
19/07/2016 Show to everybody Andata ufficio 28.14 70 01:19:08 21.34 Km\h
19/07/2016 Show to everybody Ritorno ufficio 25.58 84 01:06:08 23.21 Km\h
17/07/2016 Show to everybody Cecilia - Colli Estensi - M.te Piccolo 42.32 1394 03:05:29 13.69 Km\h
10/07/2016 Show to everybody Giro delle OMBRE nr. 2 35.41 1521 02:49:16 12.55 Km\h
07/07/2016 Show to everybody Andata ufficio 25.94 120 01:11:09 21.87 Km\h
07/07/2016 Show to everybody Ritorno ufficio 25.74 74 01:10:46 21.82 Km\h
04/07/2016 Show to everybody Turri x 2,5 volte 26.06 380 01:25:02 18.39 Km\h
01/07/2016 Show to everybody Andata ufficio 25.69 108 01:13:08 21.08 Km\h
29/06/2016 Show to everybody Andata ufficio 25.5 89 01:12:56 20.98 Km\h
29/06/2016 Show to everybody Ritorno ufficio 25.2 116 01:11:42 21.09 Km\h
25/06/2016 Show to everybody Tresche\' Conca M.te Cengio Kaberlaba 56.36 6352 03:39:53 15.38 Km\h
23/06/2016 Show to everybody Turri da Terradura per 3 volte 13.68 155 01:00:16 13.62 Km\h
21/06/2016 Show to everybody Andata ufficio 120 bpm max 25.38 57 01:18:12 19.48 Km\h
21/06/2016 Show to everybody Ritorno ufficio 135 rpm max 25.3 41 01:14:42 20.32 Km\h
11/06/2016 Show to everybody 3 ripetute sul Turri 26.24 221 01:28:46 17.74 Km\h
07/06/2016 Show to everybody Andata ufficio 25.42 64 01:13:36 20.72 Km\h
07/06/2016 Show to everybody Ritorno ufficio 25.71 27 01:14:33 20.69 Km\h
29/05/2016 Show to everybody salita dei mussi eremo teolo gruppetto m.te grande vietnam schivanoia carabinere 39.61 1491 02:59:21 13.25 Km\h
26/05/2016 Show to everybody Andata ufficio 25.95 25 01:16:23 20.38 Km\h
26/05/2016 Show to everybody Ritorno ufficio 25.98 34 01:21:33 19.11 Km\h
22/05/2016 Show to everybody Palestra del Turri - 3 ripetute 25.91 325 01:28:46 17.51 Km\h
18/05/2016 Show to everybody Andata ufficio 25.38 64 01:12:26 21.02 Km\h
18/05/2016 Show to everybody Ritorno ufficio 25.22 48 01:12:31 20.87 Km\h
15/05/2016 Show to everybody Eremo Carabiniere Tornanti Valsanzibio 25.57 1456 02:06:41 12.11 Km\h
14/04/2016 Show to everybody Giro dei due Eremi 62.08 2009 04:29:57 13.8 Km\h
10/04/2016 Show to everybody Terre bianche M.te Venda Carabiniere Q.ta 101 Zoo Praglia 29.63 1920 02:30:04 11.85 Km\h
06/04/2016 Show to everybody Ufficio 2 25.47 54 01:10:29 21.68 Km\h
06/04/2016 Show to everybody Ritorno ufficio 2 25.44 49 01:09:12 22.06 Km\h
31/03/2016 Show to everybody Ufficio 1 uscita 25.34 68 01:11:29 21.27 Km\h
31/03/2016 Show to everybody Rientro 1 25.49 86 01:17:46 19.67 Km\h
20/03/2016 Show to everybody Giro di recupero discesa dei 10 16.89 491 01:19:58 12.68 Km\h
21/02/2016 Show to everybody Colli Estensi (parziale ) 18.47 651 01:42:10 10.85 Km\h
06/02/2016 Show to everybody Resta V.Beatrice Fasolo 7Guadi 25.55 1062 02:08:03 11.97 Km\h
31/01/2016 Show to everybody Facce Grande Schivanoia Carabiniere 26.17 1109 02:09:57 12.08 Km\h
23/01/2016 Show to everybody Rusta Acqua\' Villa Beatrice M.Fasolo Calto Callegaro 28.37 996 02:36:26 10.88 Km\h
17/01/2016 Show to everybody Giretto 20.14 1119 01:45:04 11.5 Km\h
10/01/2016 Show to everybody Giro di test - 7 guadi Roccolo Galzignano 17.08 800 01:14:28 13.76 Km\h
15/11/2015 Show to everybody Ricco Cecilia Scaiara Cecilia Calabrina 32.73 895 02:35:21 12.64 Km\h
08/11/2015 Show to everybody Turri - Eremo - Chiesetta 28.43 1322 02:16:53 12.46 Km\h
01/11/2015 Show to everybody Allenamento n. 31 29.18 1590 02:26:36 11.94 Km\h
25/10/2015 Show to everybody Allenamento n. 30 23.68 938 01:54:15 12.44 Km\h
20/09/2015 Show to everybody Cecilia Scaiara Arqua\' 54.06 458 02:57:03 18.32 Km\h
14/09/2015 Show to everybody Allenamento n. 28 18.99 331 01:09:55 16.3 Km\h
10/09/2015 Show to everybody Allenamento n. 26 25.48 47 01:11:55 21.26 Km\h
10/09/2015 Show to everybody Allenamento n. 27 25.3 60 01:10:05 21.66 Km\h
07/09/2015 Show to everybody Allenamento n. 25 25.47 67 01:13:14 20.87 Km\h
03/09/2015 Show to everybody Allenamento n. 23 25.31 85 01:11:09 21.34 Km\h
03/09/2015 Show to everybody Allenamento n. 24 25.48 35 01:10:16 21.76 Km\h
21/06/2015 Show to everybody Sellaronda 2015 da Arabba 112.63 8298 04:24:10 25.58 Km\h
14/06/2015 Show to everybody Battaglia Eremo Chiesetta bassa Pianoro Scaiara discesa dei 30 46.68 2588 02:43:41 17.11 Km\h
02/06/2015 Show to everybody Turri Calto Callegaro discesa della chiesetta Mole Torreglia 55.52 1427 02:57:37 18.75 Km\h
17/05/2015 Show to everybody Groppetto M.Grande M.Venda Arqua\' Scaiara Calto Allegro 84.1 3445 05:05:19 16.53 Km\h
14/05/2015 Show to everybody Allenamento n. 10 25.18 55 01:09:14 21.82 Km\h
09/05/2015 Show to everybody M.Grande Vietnam Schivanoia Venda Carabiniere Zoo 41.78 3405 02:58:40 14.03 Km\h
04/05/2015 Show to everybody Allenamento n. 7 25.05 77 01:10:29 21.33 Km\h
26/04/2015 Show to everybody Monselice M.Ricco M.Piccolo Calto Callegaro M.Cecilia 68.18 3788 04:05:16 16.68 Km\h
20/04/2015 Show to everybody Allenamento n. 4 25.16 91 01:14:12 20.35 Km\h
20/04/2015 Show to everybody Allenamento n. 5 25 46 01:06:23 22.6 Km\h
15/04/2015 Show to everybody M.Grande Venda Zoo 37.82 2712 02:38:39 14.3 Km\h
12/04/2015 Show to everybody valsanzibio fasolo rusta 32.21 1736 02:09:48 14.89 Km\h
Training units 0
Kilometers 0 Km
Vertical gain 0 mt
Hours of riding 00:00:00
Average speed 0 Km/h
Points 249
Live Tracking »

Felt q720 0 Km

 
If you stop following this users you will not be able to compare your trainings with his

Now you follow this users and you can compare your trainings


MTB-Mag.com | 2012-2021 Training Camp v.1.6 rev 05